Time;durP1;ratioP1;P1;durP2;ratioP2;P2;SDS_P1;SDS_P2;PMS_P1;PMS_P2;Temp;Humidity;BMP_temperature;BMP_pressure;BME280_temperature;BME280_humidity;BME280_pressure;Samples;Min_cycle;Max_cycle;Signal;HPM_P1;HPM_P2
2021/08/26 00:01:02;;;;;;;8.93;2.40;;;15.50;99.90;;;;;;5049331;28;20202;-75
2021/08/26 00:06:18;;;;;;;5.17;2.70;;;15.50;99.90;;;;;;5049105;28;20413;-75
2021/08/26 00:08:47;;;;;;;7.53;2.67;;;15.40;99.90;;;;;;5045486;28;20527;-75
2021/08/26 00:11:16;;;;;;;4.13;2.33;;;15.40;99.90;;;;;;5050056;28;20199;-75
2021/08/26 00:13:45;;;;;;;8.33;2.90;;;15.50;99.90;;;;;;5049515;28;20206;-77
2021/08/26 00:16:13;;;;;;;7.10;2.65;;;15.50;99.90;;;;;;5042934;28;20637;-76
2021/08/26 00:18:40;;;;;;;9.93;2.67;;;15.40;99.90;;;;;;5048724;28;20213;-76
2021/08/26 00:21:07;;;;;;;4.93;2.33;;;15.30;99.90;;;;;;5051100;28;20649;-76
2021/08/26 00:23:35;;;;;;;5.53;2.40;;;15.30;99.90;;;;;;5049742;28;20688;-75
2021/08/26 00:26:02;;;;;;;6.40;2.30;;;15.30;99.90;;;;;;5049123;28;20415;-76
2021/08/26 00:28:29;;;;;;;9.00;2.77;;;15.30;99.90;;;;;;5043171;28;20577;-76
2021/08/26 00:30:56;;;;;;;6.07;2.70;;;15.30;99.90;;;;;;5049850;28;20205;-76
2021/08/26 00:33:22;;;;;;;6.13;2.53;;;15.30;99.90;;;;;;5042479;28;20207;-76
2021/08/26 00:35:50;;;;;;;5.33;2.50;;;15.30;99.90;;;;;;5049665;28;20211;-76
2021/08/26 00:38:17;;;;;;;6.43;2.83;;;15.30;99.90;;;;;;5052524;28;20205;-76
2021/08/26 00:40:46;;;;;;;10.13;2.87;;;15.30;99.90;;;;;;5049584;28;20294;-76
2021/08/26 00:43:13;;;;;;;10.33;3.33;;;15.30;99.90;;;;;;5050056;28;20203;-76
2021/08/26 00:45:41;;;;;;;4.27;2.50;;;15.30;99.90;;;;;;5054466;28;20202;-76
2021/08/26 00:48:09;;;;;;;9.47;2.90;;;15.20;99.90;;;;;;5049912;28;20211;-76
2021/08/26 00:50:36;;;;;;;6.30;2.83;;;15.20;99.90;;;;;;5049825;28;20195;-76
2021/08/26 00:53:03;;;;;;;9.10;2.40;;;15.20;99.90;;;;;;5054570;28;20675;-75
2021/08/26 00:55:30;;;;;;;6.70;3.07;;;15.30;99.90;;;;;;5054159;28;20289;-75
2021/08/26 00:57:58;;;;;;;12.23;3.70;;;15.30;99.90;;;;;;5054165;28;20214;-76
2021/08/26 01:00:25;;;;;;;10.40;3.47;;;15.30;99.90;;;;;;5052514;28;20206;-76
2021/08/26 01:03:01;;;;;;;6.87;2.83;;;15.20;99.90;;;;;;5054290;28;20195;-76
2021/08/26 01:05:36;;;;;;;12.23;3.60;;;15.30;99.90;;;;;;5053721;28;20229;-75
2021/08/26 01:08:08;;;;;;;9.07;3.37;;;15.30;99.90;;;;;;5053283;28;20214;-75
2021/08/26 01:10:35;;;;;;;8.27;3.13;;;15.20;99.90;;;;;;5056165;28;20248;-76
2021/08/26 01:13:06;;;;;;;9.13;3.17;;;15.20;99.90;;;;;;5053402;28;20233;-77
2021/08/26 01:15:33;;;;;;;8.93;3.00;;;15.20;99.90;;;;;;5053432;28;20205;-76
2021/08/26 01:18:00;;;;;;;6.07;2.70;;;15.20;99.90;;;;;;5053305;28;20491;-75
2021/08/26 01:20:26;;;;;;;10.43;3.03;;;15.20;99.90;;;;;;5052334;28;20210;-76
2021/08/26 01:22:54;;;;;;;8.00;2.77;;;15.30;99.90;;;;;;5053639;28;20209;-76
2021/08/26 01:25:25;;;;;;;11.47;3.47;;;15.20;99.90;;;;;;5054637;28;20314;-76
2021/08/26 01:27:58;;;;;;;11.43;3.57;;;15.20;99.90;;;;;;5062088;28;20195;-75
2021/08/26 01:30:26;;;;;;;8.70;3.17;;;15.20;99.90;;;;;;5053093;28;20209;-75
2021/08/26 01:32:55;;;;;;;7.57;3.13;;;15.20;99.90;;;;;;5047543;28;20305;-76
2021/08/26 01:35:23;;;;;;;15.57;3.80;;;15.20;99.90;;;;;;5053405;28;20202;-76
2021/08/26 01:37:51;;;;;;;10.53;3.27;;;15.20;99.90;;;;;;5045224;28;20218;-76
2021/08/26 01:40:18;;;;;;;10.33;3.53;;;15.20;99.90;;;;;;5041865;28;20211;-76
2021/08/26 01:42:46;;;;;;;8.17;3.03;;;15.20;99.90;;;;;;5053089;28;20203;-76
2021/08/26 01:45:14;;;;;;;10.17;3.47;;;15.20;99.90;;;;;;5054758;28;20273;-76
2021/08/26 01:47:41;;;;;;;12.43;2.97;;;15.30;99.90;;;;;;5048333;28;20200;-76
2021/08/26 01:50:08;;;;;;;11.20;3.23;;;15.20;99.90;;;;;;5054766;28;20207;-76
2021/08/26 01:52:35;;;;;;;11.30;2.87;;;15.20;99.90;;;;;;5048390;28;20198;-76
2021/08/26 01:55:05;;;;;;;10.73;3.50;;;15.20;99.90;;;;;;5049764;28;20191;-75
2021/08/26 01:57:33;;;;;;;10.30;3.23;;;15.30;99.90;;;;;;5050606;28;20214;-76
2021/08/26 02:00:01;;;;;;;13.13;3.63;;;15.20;99.90;;;;;;5060427;28;20198;-76
2021/08/26 02:02:30;;;;;;;11.77;3.07;;;15.20;99.90;;;;;;5049142;28;20198;-76
2021/08/26 02:04:57;;;;;;;9.03;3.17;;;15.20;99.90;;;;;;5050617;28;20313;-76
2021/08/26 02:07:23;;;;;;;10.57;3.77;;;15.20;99.90;;;;;;5060929;28;20237;-76
2021/08/26 02:09:50;;;;;;;9.67;3.40;;;15.20;99.90;;;;;;5062262;28;20653;-74
2021/08/26 02:12:18;;;;;;;14.07;3.77;;;15.20;99.90;;;;;;5045134;28;20232;-74
2021/08/26 02:14:44;;;;;;;11.83;3.37;;;15.10;99.90;;;;;;5056068;28;20202;-75
2021/08/26 02:17:12;;;;;;;13.00;3.60;;;15.10;99.90;;;;;;5052873;28;20562;-74
2021/08/26 02:19:40;;;;;;;10.93;3.50;;;15.10;99.90;;;;;;5052622;28;20207;-75
2021/08/26 02:22:07;;;;;;;15.20;4.20;;;15.10;99.90;;;;;;5053579;28;20310;-74
2021/08/26 02:24:35;;;;;;;15.20;3.80;;;15.10;99.90;;;;;;5053253;28;20726;-75
2021/08/26 02:27:01;;;;;;;12.83;3.60;;;15.10;99.90;;;;;;5053817;28;20570;-75
2021/08/26 02:29:29;;;;;;;11.53;3.00;;;15.10;99.90;;;;;;5051363;28;20574;-75
2021/08/26 02:31:55;;;;;;;10.57;3.23;;;15.10;99.90;;;;;;5057265;28;20195;-74
2021/08/26 02:34:22;;;;;;;12.73;3.90;;;15.10;99.90;;;;;;5051395;28;20219;-75
2021/08/26 02:36:50;;;;;;;12.33;3.77;;;15.10;99.90;;;;;;5050354;28;20206;-74
2021/08/26 02:39:17;;;;;;;11.17;3.60;;;15.10;99.90;;;;;;5051906;28;20293;-75
2021/08/26 02:41:44;;;;;;;14.67;3.70;;;15.10;99.90;;;;;;5052019;28;20211;-75
2021/08/26 02:44:11;;;;;;;9.13;3.30;;;15.00;99.90;;;;;;5054157;28;20636;-74
2021/08/26 02:46:38;;;;;;;9.57;3.43;;;15.00;99.90;;;;;;5051482;28;20209;-75
2021/08/26 02:49:04;;;;;;;10.80;3.63;;;15.10;99.90;;;;;;5055892;28;20199;-74
2021/08/26 02:51:31;;;;;;;13.10;3.93;;;15.00;99.90;;;;;;5050866;28;20321;-75
2021/08/26 02:53:59;;;;;;;13.80;4.10;;;15.10;99.90;;;;;;5051312;28;20580;-74
2021/08/26 02:56:26;;;;;;;13.00;3.50;;;15.00;99.90;;;;;;5052013;28;20204;-75
2021/08/26 02:58:53;;;;;;;16.80;4.30;;;15.10;99.90;;;;;;5051570;28;20565;-74
2021/08/26 03:01:20;;;;;;;11.73;4.17;;;15.00;99.90;;;;;;5050482;28;20203;-75
2021/08/26 03:03:47;;;;;;;16.60;4.40;;;15.00;99.90;;;;;;5051461;28;20210;-74
2021/08/26 03:06:14;;;;;;;13.17;4.00;;;15.00;99.90;;;;;;5051465;28;20214;-75
2021/08/26 03:08:41;;;;;;;12.20;3.80;;;14.90;99.90;;;;;;5051297;28;20229;-75
2021/08/26 03:11:10;;;;;;;16.73;4.60;;;15.00;99.90;;;;;;5051525;28;20467;-74
2021/08/26 03:13:37;;;;;;;16.13;4.37;;;15.00;99.90;;;;;;5049780;28;20262;-75
2021/08/26 03:16:04;;;;;;;10.80;3.80;;;15.00;99.90;;;;;;5051565;28;20547;-74
2021/08/26 03:18:31;;;;;;;12.67;3.47;;;14.90;99.90;;;;;;5050222;28;20210;-74
2021/08/26 03:20:57;;;;;;;15.23;3.80;;;14.90;99.90;;;;;;5051507;28;20645;-75
2021/08/26 03:23:24;;;;;;;14.73;4.43;;;14.90;99.90;;;;;;5051087;28;20207;-75
2021/08/26 03:25:52;;;;;;;16.40;4.37;;;14.90;99.90;;;;;;5051825;28;20219;-75
2021/08/26 03:28:20;;;;;;;11.93;4.00;;;14.90;99.90;;;;;;5060291;28;20388;-75
2021/08/26 03:30:48;;;;;;;13.60;4.60;;;14.80;99.90;;;;;;5049701;28;20290;-75
2021/08/26 03:33:14;;;;;;;13.20;4.70;;;14.80;99.90;;;;;;5051817;28;20556;-74
2021/08/26 03:35:41;;;;;;;12.43;4.07;;;14.70;99.90;;;;;;5051056;28;20199;-75
2021/08/26 03:38:08;;;;;;;10.93;4.50;;;14.70;99.90;;;;;;5062453;28;20202;-75
2021/08/26 03:40:35;;;;;;;17.30;4.33;;;14.70;99.90;;;;;;5050469;28;20199;-75
2021/08/26 03:43:02;;;;;;;14.67;4.57;;;14.70;99.90;;;;;;5051323;28;20203;-74
2021/08/26 03:45:30;;;;;;;12.73;5.13;;;14.70;99.90;;;;;;5051320;28;20219;-75
2021/08/26 03:47:57;;;;;;;13.73;4.50;;;14.70;99.90;;;;;;5053025;28;20207;-74
2021/08/26 03:50:24;;;;;;;14.33;4.43;;;14.70;99.90;;;;;;5055464;28;20206;-74
2021/08/26 03:52:50;;;;;;;13.33;4.93;;;14.80;99.90;;;;;;5037378;28;20565;-75
2021/08/26 03:55:18;;;;;;;17.17;4.40;;;14.70;99.90;;;;;;5051193;28;20199;-75
2021/08/26 03:57:44;;;;;;;13.37;4.00;;;14.70;99.90;;;;;;5059172;28;20210;-75
2021/08/26 04:00:12;;;;;;;11.77;4.27;;;14.70;99.90;;;;;;5049626;28;20223;-75
2021/08/26 04:02:41;;;;;;;17.03;4.47;;;14.70;99.90;;;;;;5041415;28;20199;-74
2021/08/26 04:05:09;;;;;;;12.97;4.00;;;14.60;99.90;;;;;;5042170;28;20584;-75
2021/08/26 04:07:36;;;;;;;14.07;4.40;;;14.50;99.90;;;;;;5071174;23;20246;-72
2021/08/26 04:10:03;;;;;;;13.73;4.40;;;14.50;99.90;;;;;;5041654;28;20221;-73
2021/08/26 04:12:30;;;;;;;17.30;3.77;;;14.40;99.90;;;;;;5042285;28;20203;-73
2021/08/26 04:14:57;;;;;;;16.33;3.70;;;14.40;99.90;;;;;;5040318;28;20712;-73
2021/08/26 04:17:24;;;;;;;12.23;3.50;;;14.30;99.90;;;;;;5049205;28;20691;-73
2021/08/26 04:19:52;;;;;;;9.63;3.67;;;14.30;99.90;;;;;;5042926;28;20200;-73
2021/08/26 04:22:19;;;;;;;13.13;3.97;;;14.30;99.90;;;;;;5034554;28;20203;-73
2021/08/26 04:24:45;;;;;;;12.57;3.70;;;14.30;99.90;;;;;;5041744;28;20226;-73
2021/08/26 04:27:12;;;;;;;10.33;3.20;;;14.20;99.90;;;;;;5051744;28;20213;-73
2021/08/26 04:29:39;;;;;;;12.37;3.63;;;14.20;99.90;;;;;;5048984;28;20211;-73
2021/08/26 04:32:07;;;;;;;17.40;3.77;;;14.20;99.90;;;;;;5047714;28;20226;-73
2021/08/26 04:34:34;;;;;;;13.80;3.67;;;14.20;99.90;;;;;;5049405;28;20213;-73
2021/08/26 04:37:02;;;;;;;10.73;3.80;;;14.20;99.90;;;;;;5043412;28;20695;-73
2021/08/26 04:39:29;;;;;;;13.53;3.43;;;14.10;99.90;;;;;;5042160;28;20207;-73
2021/08/26 04:41:55;;;;;;;15.10;3.50;;;14.10;99.90;;;;;;5051758;28;20203;-73
2021/08/26 04:44:22;;;;;;;16.10;3.70;;;14.10;99.90;;;;;;5044070;28;20579;-73
2021/08/26 04:46:49;;;;;;;13.20;3.70;;;14.10;99.90;;;;;;5052763;28;20199;-73
2021/08/26 04:49:17;;;;;;;10.73;4.17;;;14.10;99.90;;;;;;5047390;28;20567;-73
2021/08/26 04:51:44;;;;;;;15.30;4.03;;;14.00;99.90;;;;;;5047804;28;20204;-74
2021/08/26 04:54:13;;;;;;;10.27;3.57;;;14.10;99.90;;;;;;5048060;28;20292;-75
2021/08/26 04:56:40;;;;;;;14.40;3.80;;;14.10;99.90;;;;;;5050593;28;20199;-75
2021/08/26 04:59:07;;;;;;;15.30;4.17;;;14.00;99.90;;;;;;5046752;28;20293;-75
2021/08/26 05:01:33;;;;;;;14.90;3.73;;;14.10;99.90;;;;;;5044710;28;20209;-75
2021/08/26 05:04:03;;;;;;;13.10;3.97;;;14.10;99.90;;;;;;5046283;28;20300;-76
2021/08/26 05:06:30;;;;;;;13.27;4.07;;;14.10;99.90;;;;;;5051079;28;20608;-76
2021/08/26 05:08:56;;;;;;;20.10;5.37;;;14.20;99.90;;;;;;5049056;28;20210;-75
2021/08/26 05:11:25;;;;;;;16.30;4.27;;;14.10;99.90;;;;;;5043872;28;20573;-75
2021/08/26 05:13:52;;;;;;;14.70;5.30;;;14.10;99.90;;;;;;5049542;28;20195;-76
2021/08/26 05:16:18;;;;;;;15.03;5.07;;;14.20;99.90;;;;;;5049037;28;20658;-76
2021/08/26 05:18:45;;;;;;;14.63;4.00;;;14.20;99.90;;;;;;5044645;28;20684;-76
2021/08/26 05:21:12;;;;;;;14.90;3.87;;;14.30;99.90;;;;;;5042530;28;20211;-76
2021/08/26 05:23:39;;;;;;;17.10;3.97;;;14.40;99.90;;;;;;5043193;28;20304;-76
2021/08/26 05:26:06;;;;;;;16.33;3.77;;;14.40;99.90;;;;;;5046129;28;20595;-76
2021/08/26 05:28:34;;;;;;;13.30;3.97;;;14.40;99.90;;;;;;5044671;28;20574;-76
2021/08/26 05:31:01;;;;;;;19.50;4.53;;;14.50;99.90;;;;;;5042053;28;20199;-76
2021/08/26 05:33:29;;;;;;;14.63;3.60;;;14.50;99.90;;;;;;5045933;28;20204;-76
2021/08/26 05:35:56;;;;;;;17.07;4.80;;;14.50;99.90;;;;;;5047991;28;20203;-76
2021/08/26 05:38:23;;;;;;;13.97;4.07;;;14.50;99.90;;;;;;5047571;28;20203;-76
2021/08/26 05:40:50;;;;;;;16.70;4.33;;;14.60;99.90;;;;;;5042911;28;20206;-75
2021/08/26 05:43:16;;;;;;;16.53;4.03;;;14.60;99.90;;;;;;5041028;28;20562;-76
2021/08/26 05:45:45;;;;;;;15.83;4.00;;;14.60;99.90;;;;;;5046965;28;20681;-76
2021/08/26 05:48:11;;;;;;;14.97;3.97;;;14.70;99.90;;;;;;5048423;28;20210;-76
2021/08/26 05:50:38;;;;;;;13.10;3.70;;;14.70;99.90;;;;;;5045247;28;20206;-76
2021/08/26 05:53:05;;;;;;;19.03;4.43;;;14.70;99.90;;;;;;5043499;28;20203;-76
2021/08/26 05:55:32;;;;;;;14.93;3.83;;;14.70;99.90;;;;;;5046389;28;20204;-76
2021/08/26 05:57:59;;;;;;;22.80;4.53;;;14.80;99.90;;;;;;5040497;28;20206;-76
2021/08/26 06:00:26;;;;;;;16.93;4.00;;;14.80;99.90;;;;;;5044954;28;20195;-76
2021/08/26 06:02:54;;;;;;;17.47;5.17;;;14.90;99.90;;;;;;5047924;28;20203;-76
2021/08/26 06:05:21;;;;;;;17.30;5.53;;;14.90;99.90;;;;;;5046389;28;20223;-76
2021/08/26 06:07:48;;;;;;;13.60;5.00;;;15.00;99.90;;;;;;5045874;28;20210;-76
2021/08/26 06:10:15;;;;;;;18.73;4.47;;;15.00;99.90;;;;;;5045578;28;20214;-76
2021/08/26 06:12:42;;;;;;;15.03;4.77;;;15.00;99.90;;;;;;5046957;28;20209;-76
2021/08/26 06:15:11;;;;;;;15.67;4.23;;;15.00;99.90;;;;;;5047210;28;20564;-76
2021/08/26 06:17:38;;;;;;;15.67;4.67;;;15.10;99.90;;;;;;5046433;28;20684;-76
2021/08/26 06:20:08;;;;;;;14.40;4.60;;;15.20;99.90;;;;;;5044419;28;20202;-76
2021/08/26 06:22:35;;;;;;;17.83;4.67;;;15.30;99.90;;;;;;5048151;28;20207;-76
2021/08/26 06:25:03;;;;;;;15.73;4.77;;;15.30;99.90;;;;;;5046960;28;20234;-76
2021/08/26 06:27:30;;;;;;;16.47;4.57;;;15.40;99.90;;;;;;5043093;28;20203;-76
2021/08/26 06:29:56;;;;;;;15.53;4.03;;;15.50;99.90;;;;;;5042889;28;20199;-76
2021/08/26 06:32:23;;;;;;;11.40;4.33;;;15.60;99.90;;;;;;5046483;28;20572;-76
2021/08/26 06:34:50;;;;;;;16.20;4.53;;;15.50;99.90;;;;;;5045476;28;20199;-76
2021/08/26 06:37:18;;;;;;;19.57;5.13;;;15.50;99.90;;;;;;5042167;28;20208;-76
2021/08/26 06:39:45;;;;;;;16.17;4.43;;;15.60;99.90;;;;;;5041674;28;20294;-77
2021/08/26 06:42:12;;;;;;;12.40;4.17;;;15.60;99.90;;;;;;5042578;28;20653;-76
2021/08/26 06:44:39;;;;;;;17.67;4.97;;;15.70;99.90;;;;;;5048781;28;20207;-76
2021/08/26 06:47:06;;;;;;;16.20;4.73;;;15.70;99.90;;;;;;5045030;28;20229;-76
2021/08/26 06:49:33;;;;;;;17.37;4.90;;;15.80;99.90;;;;;;5044128;28;20273;-76
2021/08/26 06:52:00;;;;;;;17.77;5.15;;;15.90;99.90;;;;;;5043035;28;20205;-76
2021/08/26 06:54:28;;;;;;;16.42;5.28;;;15.90;99.90;;;;;;5042850;28;20207;-76
2021/08/26 06:56:55;;;;;;;18.05;5.28;;;15.90;99.90;;;;;;5046348;28;20203;-76
2021/08/26 06:59:22;;;;;;;21.33;5.47;;;15.70;99.90;;;;;;5041178;28;20709;-73
2021/08/26 07:01:49;;;;;;;17.43;5.23;;;15.80;99.90;;;;;;5043537;28;20199;-76
2021/08/26 07:04:16;;;;;;;22.47;6.07;;;15.80;99.90;;;;;;5045833;28;20207;-76
2021/08/26 07:06:43;;;;;;;16.57;5.20;;;15.80;99.90;;;;;;5046230;28;20231;-76
2021/08/26 07:09:10;;;;;;;17.42;5.82;;;15.90;99.90;;;;;;5047471;28;20265;-76
2021/08/26 07:11:39;;;;;;;13.70;4.80;;;15.90;99.90;;;;;;5038276;28;20207;-76
2021/08/26 07:14:06;;;;;;;17.50;5.07;;;16.00;99.90;;;;;;5043821;28;20340;-76
2021/08/26 07:16:33;;;;;;;16.10;5.00;;;16.00;99.90;;;;;;5044069;28;20256;-74
2021/08/26 07:19:00;;;;;;;15.40;5.03;;;16.00;99.90;;;;;;5040467;28;20245;-74
2021/08/26 07:21:27;;;;;;;20.30;5.73;;;16.00;99.90;;;;;;5043728;28;20199;-74
2021/08/26 07:23:54;;;;;;;19.02;5.13;;;16.10;99.90;;;;;;5035615;28;20215;-74
2021/08/26 07:26:21;;;;;;;14.32;5.00;;;16.20;99.90;;;;;;5042940;28;20219;-75
2021/08/26 07:28:51;;;;;;;17.23;5.68;;;16.40;99.90;;;;;;5044598;28;20280;-75
2021/08/26 07:31:18;;;;;;;20.50;5.57;;;16.50;99.90;;;;;;5041295;28;20215;-74
2021/08/26 07:33:45;;;;;;;18.80;6.18;;;16.50;99.90;;;;;;5042620;28;20268;-75
2021/08/26 07:36:12;;;;;;;17.50;5.22;;;16.40;99.90;;;;;;5043102;28;20218;-75
2021/08/26 07:38:39;;;;;;;18.75;5.63;;;16.40;99.90;;;;;;5046824;28;20199;-74
2021/08/26 07:41:06;;;;;;;22.50;5.75;;;16.50;99.90;;;;;;5045551;28;20253;-74
2021/08/26 07:43:36;;;;;;;23.13;6.55;;;16.50;99.90;;;;;;5042272;28;20199;-75
2021/08/26 07:46:04;;;;;;;20.00;6.25;;;16.50;99.90;;;;;;5043556;28;20677;-75
2021/08/26 07:48:31;;;;;;;16.45;6.43;;;16.50;99.90;;;;;;5042938;28;20253;-75
2021/08/26 07:51:02;;;;;;;17.55;5.63;;;16.70;99.90;;;;;;5042430;28;20253;-75
2021/08/26 07:53:30;;;;;;;21.50;5.93;;;16.70;99.90;;;;;;5044161;28;20386;-75
2021/08/26 07:55:57;;;;;;;16.42;5.75;;;16.80;99.90;;;;;;5042922;28;20790;-75
2021/08/26 07:58:27;;;;;;;15.15;5.13;;;16.90;99.90;;;;;;5045583;28;20195;-75
2021/08/26 08:00:54;;;;;;;19.95;5.05;;;17.00;99.90;;;;;;5036614;28;20212;-74
2021/08/26 08:03:23;;;;;;;20.13;6.13;;;17.10;99.90;;;;;;5038931;28;20334;-76
2021/08/26 08:05:50;;;;;;;21.05;6.13;;;17.00;99.90;;;;;;5043450;28;20227;-76
2021/08/26 08:08:17;;;;;;;24.27;6.82;;;17.10;99.90;;;;;;5041979;28;20219;-75
2021/08/26 08:10:44;;;;;;;20.23;6.60;;;17.00;99.90;;;;;;5043515;28;20203;-76
2021/08/26 08:13:11;;;;;;;17.77;5.80;;;17.10;99.90;;;;;;5041519;28;20232;-75
2021/08/26 08:15:39;;;;;;;18.52;5.85;;;17.10;99.90;;;;;;5043635;28;20233;-76
2021/08/26 08:18:06;;;;;;;17.65;5.75;;;17.20;99.90;;;;;;5043338;28;20479;-76
2021/08/26 08:20:34;;;;;;;18.52;6.88;;;17.20;99.90;;;;;;5043601;28;20629;-75
2021/08/26 08:23:01;;;;;;;20.98;6.25;;;17.30;99.90;;;;;;5043657;28;20195;-76
2021/08/26 08:25:28;;;;;;;19.42;6.30;;;17.30;99.90;;;;;;5042924;28;20210;-76
2021/08/26 08:27:55;;;;;;;19.05;5.95;;;17.30;99.90;;;;;;5046188;28;20622;-75
2021/08/26 08:30:26;;;;;;;14.65;5.78;;;17.50;99.90;;;;;;5037789;28;20624;-76
2021/08/26 08:32:54;;;;;;;16.48;6.45;;;17.50;99.90;;;;;;5043622;28;20220;-75
2021/08/26 08:35:21;;;;;;;19.52;6.68;;;17.50;99.90;;;;;;5038634;28;20719;-75
2021/08/26 08:37:50;;;;;;;15.65;6.07;;;17.50;99.90;;;;;;5043445;28;20195;-75
2021/08/26 08:40:17;;;;;;;15.05;5.00;;;17.40;99.90;;;;;;5042259;28;20200;-76
2021/08/26 08:42:45;;;;;;;21.45;6.45;;;17.40;99.90;;;;;;5036490;28;21013;-75
2021/08/26 08:45:12;;;;;;;22.20;6.57;;;17.50;99.90;;;;;;5032690;28;20288;-75
2021/08/26 08:47:42;;;;;;;15.00;5.28;;;17.60;99.90;;;;;;5034055;28;20223;-76
2021/08/26 08:50:10;;;;;;;15.13;6.10;;;17.80;99.90;;;;;;5029722;28;20196;-75
2021/08/26 08:52:37;;;;;;;19.95;6.78;;;18.00;99.90;;;;;;5036164;28;20236;-75
2021/08/26 08:55:09;;;;;;;19.77;5.68;;;18.10;99.90;;;;;;5032092;28;20219;-75
2021/08/26 08:57:37;;;;;;;21.10;6.22;;;18.20;99.90;;;;;;5034887;28;20203;-75
2021/08/26 09:00:08;;;;;;;15.90;6.35;;;18.00;99.90;;;;;;5035243;28;20744;-75
2021/08/26 09:02:35;;;;;;;17.05;5.85;;;17.80;99.90;;;;;;5032851;28;20246;-75
2021/08/26 09:05:02;;;;;;;16.80;6.13;;;17.80;99.90;;;;;;5035041;28;20199;-75
2021/08/26 09:07:31;;;;;;;19.40;6.53;;;18.00;99.90;;;;;;5029839;28;20215;-76
2021/08/26 09:09:59;;;;;;;15.57;5.95;;;18.20;99.90;;;;;;5035452;28;20262;-75
2021/08/26 09:12:52;;;;;;;19.50;6.15;;;18.20;99.90;;;;;;5031186;28;22144;-76
2021/08/26 09:15:21;;;;;;;15.52;5.57;;;18.00;99.90;;;;;;5042454;28;20212;-76
2021/08/26 09:17:49;;;;;;;16.30;5.68;;;18.00;99.90;;;;;;5032247;28;20261;-75
2021/08/26 09:20:17;;;;;;;16.35;5.80;;;18.20;99.90;;;;;;5041078;28;20218;-75
2021/08/26 09:22:47;;;;;;;16.33;5.53;;;18.60;99.90;;;;;;5038523;28;20673;-77
2021/08/26 09:25:23;;;;;;;18.75;6.38;;;18.90;99.90;;;;;;5037209;28;20523;-77
2021/08/26 09:27:52;;;;;;;12.70;5.50;;;18.90;99.90;;;;;;5035884;28;20227;-77
2021/08/26 09:30:20;;;;;;;14.57;6.00;;;18.70;99.90;;;;;;5033494;28;20207;-77
2021/08/26 09:32:49;;;;;;;12.82;5.72;;;18.50;99.90;;;;;;5036899;28;20215;-77
2021/08/26 09:35:18;;;;;;;15.30;6.15;;;18.20;99.90;;;;;;5038510;28;20925;-76
2021/08/26 09:37:49;;;;;;;18.00;6.63;;;18.50;99.90;;;;;;5041274;28;20234;-77
2021/08/26 09:40:18;;;;;;;15.52;5.78;;;18.90;99.90;;;;;;5032343;28;20219;-77
2021/08/26 09:42:56;;;;;;;16.35;6.35;;;19.00;99.90;;;;;;5036231;28;20243;-77
2021/08/26 09:45:26;;;;;;;12.40;5.22;;;19.20;99.90;;;;;;5042833;28;20293;-77
2021/08/26 09:48:04;;;;;;;17.55;5.97;;;18.80;99.90;;;;;;5036789;28;20259;-77
2021/08/26 09:50:45;;;;;;;14.15;6.00;;;18.80;99.90;;;;;;5035411;28;20341;-77
2021/08/26 09:53:14;;;;;;;14.48;5.93;;;19.00;99.90;;;;;;5038730;28;20199;-77
2021/08/26 09:56:09;;;;;;;19.67;6.53;;;19.10;99.90;;;;;;5038617;28;20207;-77
2021/08/26 09:58:37;;;;;;;15.30;6.03;;;19.20;99.90;;;;;;4992482;28;20203;-77
2021/08/26 10:01:07;;;;;;;12.00;5.85;;;19.30;99.90;;;;;;5033305;28;20207;-77
2021/08/26 10:03:34;;;;;;;15.63;5.93;;;19.40;99.90;;;;;;5034541;28;20216;-77
2021/08/26 10:06:01;;;;;;;18.40;5.78;;;19.40;99.90;;;;;;5036595;28;20261;-77
2021/08/26 10:08:31;;;;;;;12.77;5.45;;;19.40;99.90;;;;;;5039117;28;20214;-77
2021/08/26 10:11:00;;;;;;;12.32;5.00;;;19.40;99.90;;;;;;5038422;28;20288;-78
2021/08/26 10:13:29;;;;;;;12.23;4.85;;;19.10;99.90;;;;;;5036486;28;20207;-78
2021/08/26 10:15:58;;;;;;;13.00;4.47;;;19.00;99.90;;;;;;5043022;28;20670;-78
2021/08/26 10:18:27;;;;;;;14.80;5.82;;;18.90;99.90;;;;;;5034557;28;20739;-76
2021/08/26 10:20:55;;;;;;;14.02;5.35;;;18.80;99.90;;;;;;5038844;28;20205;-75
2021/08/26 10:23:23;;;;;;;11.55;4.90;;;18.70;99.90;;;;;;5031572;28;20215;-75
2021/08/26 10:25:51;;;;;;;13.52;4.55;;;18.80;99.90;;;;;;5035625;28;20523;-75
2021/08/26 10:28:20;;;;;;;13.25;5.75;;;19.00;99.90;;;;;;5033210;28;20218;-75
2021/08/26 10:30:47;;;;;;;12.85;5.03;;;19.20;99.90;;;;;;5037583;28;20207;-75
2021/08/26 10:33:17;;;;;;;12.10;5.22;;;19.00;99.90;;;;;;5035910;28;20302;-76
2021/08/26 10:36:02;;;;;;;13.13;4.55;;;19.20;99.90;;;;;;5040863;28;20203;-76
2021/08/26 10:38:32;;;;;;;11.50;4.63;;;19.10;99.90;;;;;;5037060;28;20203;-76
2021/08/26 10:41:01;;;;;;;12.45;4.63;;;19.10;99.90;;;;;;5038854;28;20509;-76
2021/08/26 10:43:35;;;;;;;16.15;5.28;;;19.10;99.90;;;;;;5034953;28;20262;-75
2021/08/26 10:46:03;;;;;;;8.57;4.25;;;18.70;99.90;;;;;;5034737;28;20248;-77
2021/08/26 10:48:32;;;;;;;12.57;4.70;;;18.30;99.90;;;;;;5038504;28;20226;-74
2021/08/26 10:51:08;;;;;;;10.55;4.88;;;18.10;99.90;;;;;;5044531;28;20653;-75
2021/08/26 10:53:36;;;;;;;12.57;5.57;;;18.20;99.90;;;;;;5041407;28;20206;-74
2021/08/26 10:56:25;;;;;;;13.57;5.78;;;18.00;99.90;;;;;;5043106;28;20253;-75
2021/08/26 10:58:53;;;;;;;9.77;5.50;;;17.70;99.90;;;;;;5044120;28;20206;-75
2021/08/26 11:01:38;;;;;;;9.40;4.13;;;17.50;99.90;;;;;;5043491;28;20191;-76
2021/08/26 11:04:17;;;;;;;10.32;3.97;;;17.20;99.90;;;;;;5041584;28;20241;-75
2021/08/26 11:06:47;;;;;;;9.80;4.28;;;17.10;99.90;;;;;;5043329;28;20226;-75
2021/08/26 11:09:36;;;;;;;10.52;3.92;;;17.10;99.90;;;;;;5045626;28;20281;-75
2021/08/26 11:12:24;;;;;;;11.50;3.28;;;16.90;99.90;;;;;;5039459;28;20249;-75
2021/08/26 11:14:52;;;;;;;7.80;3.60;;;17.00;99.90;;;;;;5032790;28;20628;-75
2021/08/26 11:17:26;;;;;;;6.72;2.95;;;16.90;99.90;;;;;;5041023;28;20674;-75
2021/08/26 11:19:56;;;;;;;8.23;2.90;;;16.90;99.90;;;;;;5039331;28;20211;-75
2021/08/26 11:22:23;;;;;;;5.78;2.28;;;16.80;99.90;;;;;;5045779;28;20234;-75
2021/08/26 11:24:56;;;;;;;3.90;2.17;;;16.60;99.90;;;;;;5043576;28;20676;-76
2021/08/26 11:27:33;;;;;;;4.10;1.95;;;16.80;99.90;;;;;;5041619;28;20318;-75
2021/08/26 11:30:24;;;;;;;2.88;1.80;;;16.70;99.90;;;;;;5038573;28;20206;-75
2021/08/26 11:32:52;;;;;;;2.08;1.65;;;17.10;99.90;;;;;;5046710;28;20509;-75
2021/08/26 11:35:20;;;;;;;4.80;1.80;;;17.40;99.90;;;;;;5042446;28;20199;-75
2021/08/26 11:37:47;;;;;;;5.18;1.90;;;17.60;99.90;;;;;;5043216;28;20202;-75
2021/08/26 11:40:15;;;;;;;4.55;2.10;;;18.00;99.90;;;;;;5039055;28;20649;-75
2021/08/26 11:42:44;;;;;;;3.90;2.38;;;18.20;99.90;;;;;;5039317;28;20207;-75
2021/08/26 11:45:17;;;;;;;5.40;2.10;;;18.30;99.90;;;;;;5044041;28;20206;-75
2021/08/26 11:47:47;;;;;;;3.95;2.65;;;18.30;99.90;;;;;;5040258;28;20772;-75
2021/08/26 11:50:17;;;;;;;6.68;2.38;;;18.60;99.90;;;;;;5046966;28;20215;-75
2021/08/26 11:52:48;;;;;;;5.40;2.25;;;18.40;99.90;;;;;;5040862;28;20234;-75
2021/08/26 11:55:15;;;;;;;6.65;2.72;;;18.40;99.90;;;;;;5040637;28;20616;-76
2021/08/26 11:57:43;;;;;;;4.88;2.65;;;18.20;99.90;;;;;;5043455;28;20207;-76
2021/08/26 12:00:15;;;;;;;10.73;3.20;;;18.20;99.90;;;;;;5038688;28;20294;-76
2021/08/26 12:02:43;;;;;;;6.95;2.80;;;18.10;99.90;;;;;;5040501;28;20210;-76
2021/08/26 12:05:13;;;;;;;4.53;2.20;;;18.00;99.90;;;;;;5038830;28;20278;-74
2021/08/26 12:07:42;;;;;;;6.43;2.22;;;18.10;99.90;;;;;;5039397;28;20638;-74
2021/08/26 12:10:15;;;;;;;6.30;2.40;;;17.80;99.90;;;;;;5044654;28;20563;-75
2021/08/26 12:13:00;;;;;;;3.22;1.35;;;17.60;99.90;;;;;;5041983;28;20203;-74
2021/08/26 12:15:30;;;;;;;4.20;2.33;;;17.30;99.90;;;;;;5044878;28;20199;-74
2021/08/26 12:18:00;;;;;;;3.50;1.73;;;17.10;99.90;;;;;;5038910;28;20195;-74
2021/08/26 12:20:28;;;;;;;3.45;1.65;;;17.20;99.90;;;;;;5042421;28;20613;-74
2021/08/26 12:22:56;;;;;;;5.05;1.58;;;17.40;99.90;;;;;;5043138;28;20566;-75
2021/08/26 12:25:32;;;;;;;5.07;1.90;;;17.40;99.90;;;;;;5041986;28;20249;-75
2021/08/26 12:28:03;;;;;;;3.20;2.05;;;18.00;99.90;;;;;;5038305;28;20227;-75
2021/08/26 12:30:38;;;;;;;2.45;1.38;;;17.90;99.90;;;;;;5044514;28;20207;-75
2021/08/26 12:33:08;;;;;;;2.72;1.85;;;17.60;99.90;;;;;;5034916;28;20565;-75
2021/08/26 12:35:51;;;;;;;4.47;1.83;;;18.10;99.90;;;;;;5040961;28;20207;-75
2021/08/26 12:38:33;;;;;;;4.43;1.50;;;18.20;99.90;;;;;;5045346;28;20199;-75
2021/08/26 12:41:04;;;;;;;3.47;1.13;;;18.90;99.90;;;;;;5041671;28;20199;-75
2021/08/26 12:43:44;;;;;;;4.38;1.90;;;19.10;99.90;;;;;;5039831;28;20203;-76
2021/08/26 12:46:19;;;;;;;4.07;1.38;;;19.70;99.90;;;;;;5042437;28;20569;-75
2021/08/26 12:48:48;;;;;;;3.97;1.33;;;19.80;99.90;;;;;;5051166;28;20634;-76